createdAt,value
2023-03-06T00:00:23.094Z,2.85
2023-03-06T00:02:50.187Z,2.81
2023-03-06T00:05:16.970Z,2.80
2023-03-06T00:07:44.575Z,2.71
2023-03-06T00:10:21.914Z,2.73
2023-03-06T00:12:48.561Z,2.65
2023-03-06T00:15:15.120Z,2.66
2023-03-06T00:17:41.694Z,2.55
2023-03-06T00:20:10.945Z,2.60
2023-03-06T00:22:37.861Z,2.56
2023-03-06T00:25:06.054Z,2.50
2023-03-06T00:27:33.297Z,2.53
2023-03-06T00:30:00.945Z,2.45
2023-03-06T00:32:29.061Z,2.48
2023-03-06T00:34:55.933Z,2.46
2023-03-06T00:37:24.430Z,2.48
2023-03-06T00:39:51.079Z,2.43
2023-03-06T00:42:19.348Z,2.48
2023-03-06T00:44:46.304Z,2.47
2023-03-06T00:47:16.986Z,2.41
2023-03-06T00:49:46.692Z,2.45
2023-03-06T00:52:13.906Z,2.45
2023-03-06T00:54:41.152Z,2.38
2023-03-06T00:57:07.757Z,2.41
2023-03-06T00:59:34.690Z,2.42
2023-03-06T01:02:02.257Z,2.37
2023-03-06T01:04:28.893Z,2.35
2023-03-06T01:06:55.486Z,2.36
2023-03-06T01:09:22.009Z,2.43
2023-03-06T01:11:48.569Z,2.42
2023-03-06T01:14:15.155Z,2.43
2023-03-06T01:16:41.788Z,2.37
2023-03-06T01:19:08.491Z,2.38
2023-03-06T01:21:35.052Z,2.37
2023-03-06T01:24:01.711Z,2.42
2023-03-06T01:26:28.430Z,2.40
2023-03-06T01:28:57.311Z,2.38
2023-03-06T01:31:25.320Z,2.35
2023-03-06T01:33:52.393Z,2.36
2023-03-06T01:36:19.084Z,2.31
2023-03-06T01:38:45.868Z,2.34
2023-03-06T01:41:15.707Z,2.33
2023-03-06T01:43:45.620Z,2.31
2023-03-06T01:46:28.701Z,2.30
2023-03-06T01:49:00.542Z,2.29
2023-03-06T01:51:42.878Z,2.26
2023-03-06T01:54:17.625Z,2.25
2023-03-06T01:56:48.922Z,2.15
2023-03-06T01:59:16.899Z,2.18
2023-03-06T02:01:44.956Z,2.18
2023-03-06T02:04:12.224Z,2.16
2023-03-06T02:06:43.298Z,2.14
2023-03-06T02:09:11.732Z,2.10
2023-03-06T02:11:43.691Z,2.03
2023-03-06T02:14:14.951Z,1.97
2023-03-06T02:16:42.230Z,2.01
2023-03-06T02:19:28.994Z,1.95
2023-03-06T02:21:55.895Z,1.87
2023-03-06T02:24:45.596Z,1.84
2023-03-06T02:27:14.897Z,1.86
2023-03-06T02:29:41.465Z,1.83
2023-03-06T02:32:08.231Z,1.82
2023-03-06T02:34:49.826Z,1.77
2023-03-06T02:37:16.517Z,1.76
2023-03-06T02:39:49.793Z,1.79
2023-03-06T02:42:22.622Z,1.75
2023-03-06T02:44:51.208Z,1.80
2023-03-06T02:47:18.063Z,1.78
2023-03-06T02:49:44.702Z,1.77
2023-03-06T02:52:11.557Z,1.79
2023-03-06T02:54:38.150Z,1.87
2023-03-06T02:57:04.786Z,1.82
2023-03-06T02:59:31.382Z,1.88
2023-03-06T03:01:57.984Z,1.92
2023-03-06T03:04:24.737Z,1.99
2023-03-06T03:06:51.359Z,2.02
2023-03-06T03:09:18.017Z,2.00
2023-03-06T03:11:44.595Z,2.03
2023-03-06T03:14:11.156Z,2.09
2023-03-06T03:16:39.200Z,2.15
2023-03-06T03:19:05.917Z,2.15
2023-03-06T03:21:32.542Z,2.14
2023-03-06T03:24:03.601Z,2.20
2023-03-06T03:26:30.179Z,2.24
2023-03-06T03:28:56.794Z,2.27
2023-03-06T03:31:23.454Z,2.27
2023-03-06T03:33:50.049Z,2.30
2023-03-06T03:36:16.684Z,2.33
2023-03-06T03:38:43.196Z,2.34
2023-03-06T03:41:09.768Z,2.38
2023-03-06T03:43:36.339Z,2.41
2023-03-06T03:46:03.054Z,2.36
2023-03-06T03:48:29.688Z,2.39
2023-03-06T03:51:04.444Z,2.37
2023-03-06T03:53:31.095Z,2.43
2023-03-06T03:55:57.691Z,2.43
2023-03-06T03:58:24.328Z,2.49
2023-03-06T04:00:50.944Z,2.47
2023-03-06T04:03:17.661Z,2.50
2023-03-06T04:05:44.244Z,2.47
2023-03-06T04:08:10.851Z,2.51
2023-03-06T04:10:39.398Z,2.55
2023-03-06T04:13:09.582Z,2.58
2023-03-06T04:15:36.972Z,2.57
2023-03-06T04:18:03.670Z,2.61
2023-03-06T04:20:30.547Z,2.61
2023-03-06T04:22:57.187Z,2.60
2023-03-06T04:25:23.858Z,2.68
2023-03-06T04:27:50.491Z,2.63
2023-03-06T04:30:17.204Z,2.70
2023-03-06T04:32:43.870Z,2.65
2023-03-06T04:35:10.732Z,2.70
2023-03-06T04:37:37.328Z,2.71
2023-03-06T04:40:04.316Z,2.71
2023-03-06T04:42:31.262Z,2.74
2023-03-06T04:44:57.826Z,2.77
2023-03-06T04:47:24.491Z,2.76
2023-03-06T04:49:51.091Z,2.78
2023-03-06T04:52:17.705Z,2.77
2023-03-06T04:54:46.012Z,2.75
2023-03-06T04:57:14.128Z,2.81
2023-03-06T04:59:40.743Z,2.79
2023-03-06T05:02:07.534Z,2.82
2023-03-06T05:04:34.383Z,2.86
2023-03-06T05:07:00.974Z,2.85
2023-03-06T05:09:27.664Z,2.89
2023-03-06T05:11:54.258Z,2.89
2023-03-06T05:14:21.935Z,2.92
2023-03-06T05:16:48.554Z,2.96
2023-03-06T05:19:15.416Z,2.98
2023-03-06T05:21:42.159Z,2.99
2023-03-06T05:24:09.732Z,2.97
2023-03-06T05:26:36.326Z,3.03
2023-03-06T05:29:02.972Z,3.03
2023-03-06T05:31:29.513Z,3.06
2023-03-06T05:33:57.524Z,3.02
2023-03-06T05:36:24.707Z,3.06
2023-03-06T05:38:51.357Z,3.05
2023-03-06T05:41:18.012Z,3.10
2023-03-06T05:43:44.643Z,3.12
2023-03-06T05:46:11.924Z,3.14
2023-03-06T05:48:38.636Z,3.11
2023-03-06T05:51:05.754Z,3.12
2023-03-06T05:53:32.798Z,3.11
2023-03-06T05:56:03.907Z,3.04
2023-03-06T05:58:32.551Z,3.02
2023-03-06T06:00:59.819Z,2.98
2023-03-06T06:03:26.998Z,3.03
2023-03-06T06:05:53.576Z,2.97
2023-03-06T06:08:20.642Z,2.99
2023-03-06T06:10:47.272Z,2.99
2023-03-06T06:13:13.863Z,2.94
2023-03-06T06:15:40.474Z,2.97
2023-03-06T06:18:07.043Z,2.92
2023-03-06T06:20:33.655Z,2.92
2023-03-06T06:23:00.254Z,2.96
2023-03-06T06:25:26.841Z,2.99
2023-03-06T06:27:55.334Z,2.95
2023-03-06T06:30:22.688Z,3.00
2023-03-06T06:32:49.693Z,3.08
2023-03-06T06:35:16.405Z,3.10
2023-03-06T06:37:42.903Z,3.06
2023-03-06T06:40:10.186Z,3.14
2023-03-06T06:42:39.822Z,3.15
2023-03-06T06:45:08.338Z,3.16
2023-03-06T06:47:34.977Z,3.21
2023-03-06T06:50:01.644Z,3.19
2023-03-06T06:52:28.374Z,3.24
2023-03-06T06:54:55.132Z,3.32
2023-03-06T06:57:21.898Z,3.30
2023-03-06T06:59:48.444Z,3.35
2023-03-06T07:02:16.418Z,3.44
2023-03-06T07:05:00.297Z,3.43
2023-03-06T07:07:31.104Z,3.49
2023-03-06T07:09:57.697Z,3.50
2023-03-06T07:12:24.312Z,3.52
2023-03-06T07:14:50.900Z,3.54
2023-03-06T07:17:17.490Z,3.62
2023-03-06T07:19:44.013Z,3.61
2023-03-06T07:22:10.585Z,3.64
2023-03-06T07:24:37.105Z,3.65
2023-03-06T07:27:04.224Z,3.76
2023-03-06T07:29:32.843Z,3.84
2023-03-06T07:31:59.527Z,3.92
2023-03-06T07:34:26.143Z,4.04
2023-03-06T07:36:52.709Z,4.19
2023-03-06T07:39:19.317Z,4.28
2023-03-06T07:41:45.990Z,4.47
2023-03-06T07:44:12.617Z,4.68
2023-03-06T07:46:39.250Z,4.90
2023-03-06T07:49:05.835Z,5.07
2023-03-06T07:51:32.419Z,5.25
2023-03-06T07:53:59.083Z,5.35
2023-03-06T07:56:25.649Z,5.42
2023-03-06T07:58:52.319Z,5.47
2023-03-06T08:01:23.402Z,5.45
2023-03-06T08:03:50.505Z,5.47
2023-03-06T08:06:20.729Z,5.49
2023-03-06T08:08:49.289Z,5.46
2023-03-06T08:11:17.772Z,5.53
2023-03-06T08:13:44.419Z,5.48
2023-03-06T08:16:11.537Z,5.54
2023-03-06T08:18:39.652Z,5.49
2023-03-06T08:21:13.125Z,5.53
2023-03-06T08:23:40.397Z,5.49
2023-03-06T08:26:11.004Z,5.50
2023-03-06T08:28:37.791Z,5.54
2023-03-06T08:31:12.867Z,5.54
2023-03-06T08:33:40.168Z,5.51
2023-03-06T08:36:06.903Z,5.58
2023-03-06T08:38:33.473Z,5.61
2023-03-06T08:41:00.029Z,5.66
2023-03-06T08:43:26.737Z,5.61
2023-03-06T08:45:56.225Z,5.67
2023-03-06T08:48:23.134Z,5.71
2023-03-06T08:50:49.798Z,5.80
2023-03-06T08:53:17.588Z,5.98
2023-03-06T08:55:47.231Z,6.23
2023-03-06T08:58:13.734Z,6.64
2023-03-06T09:00:40.479Z,7.08
2023-03-06T09:03:07.101Z,7.62
2023-03-06T09:05:34.041Z,8.10
2023-03-06T09:08:00.911Z,8.44
2023-03-06T09:10:28.483Z,8.63
2023-03-06T09:12:55.467Z,8.73
2023-03-06T09:15:24.715Z,9.04
2023-03-06T09:17:52.373Z,9.18
2023-03-06T09:20:19.067Z,9.28
2023-03-06T09:22:46.057Z,9.34
2023-03-06T09:25:14.417Z,9.17
2023-03-06T09:27:41.261Z,9.34
2023-03-06T09:30:09.105Z,9.50
2023-03-06T09:32:35.731Z,9.70
2023-03-06T09:35:02.363Z,10.02
2023-03-06T09:37:29.047Z,10.30
2023-03-06T09:39:55.629Z,10.58
2023-03-06T09:42:23.635Z,10.75
2023-03-06T09:45:02.230Z,10.95
2023-03-06T09:47:53.028Z,10.97
2023-03-06T09:50:24.635Z,10.93
2023-03-06T09:53:15.257Z,10.94
2023-03-06T09:55:46.660Z,10.85
2023-03-06T09:58:21.890Z,10.93
2023-03-06T10:01:16.264Z,11.02
2023-03-06T10:04:11.457Z,10.82
2023-03-06T10:06:55.340Z,10.68
2023-03-06T10:09:41.923Z,10.33
2023-03-06T10:12:25.497Z,10.15
2023-03-06T10:15:22.366Z,10.14
2023-03-06T10:17:49.124Z,10.19
2023-03-06T10:20:29.278Z,10.09
2023-03-06T10:23:24.073Z,10.26
2023-03-06T10:26:02.344Z,10.50
2023-03-06T10:28:41.269Z,10.70
2023-03-06T10:31:20.582Z,10.78
2023-03-06T10:33:57.928Z,10.76
2023-03-06T10:36:29.642Z,10.93
2023-03-06T10:38:58.568Z,10.95
2023-03-06T10:41:31.689Z,10.84
2023-03-06T10:44:01.061Z,10.83
2023-03-06T10:46:30.780Z,10.77
2023-03-06T10:49:00.628Z,10.74
2023-03-06T10:51:29.397Z,10.84
2023-03-06T10:54:00.113Z,11.06
2023-03-06T10:56:39.285Z,11.31
2023-03-06T10:59:17.156Z,11.46
2023-03-06T11:01:47.174Z,11.59
2023-03-06T11:04:25.175Z,11.52
2023-03-06T11:07:09.019Z,11.54
2023-03-06T11:09:36.182Z,11.61
2023-03-06T11:12:22.592Z,11.83
2023-03-06T11:15:14.156Z,11.82
2023-03-06T11:17:54.778Z,11.57
2023-03-06T11:20:53.310Z,11.53
2023-03-06T11:23:37.459Z,11.53
2023-03-06T11:26:16.464Z,11.48
2023-03-06T11:28:52.017Z,11.39
2023-03-06T11:31:32.192Z,11.14
2023-03-06T11:34:14.208Z,10.94
2023-03-06T11:36:58.432Z,10.61
2023-03-06T11:39:36.901Z,10.37
2023-03-06T11:42:16.981Z,10.23
2023-03-06T11:45:00.278Z,10.22
2023-03-06T11:47:34.980Z,10.24
2023-03-06T11:50:07.464Z,10.14
2023-03-06T11:52:49.031Z,10.30
2023-03-06T11:55:28.699Z,10.32
2023-03-06T11:58:18.074Z,10.42
2023-03-06T12:00:57.495Z,10.32
2023-03-06T12:03:56.891Z,10.38
2023-03-06T12:07:20.772Z,10.20
2023-03-06T12:09:55.086Z,10.05
2023-03-06T12:12:46.479Z,9.92
2023-03-06T12:15:23.388Z,9.83
2023-03-06T12:18:08.399Z,9.82
2023-03-06T12:20:54.154Z,9.65
2023-03-06T12:23:42.328Z,9.67
2023-03-06T12:26:34.462Z,9.72
2023-03-06T12:29:38.232Z,9.65
2023-03-06T12:32:14.853Z,9.60
2023-03-06T12:34:58.727Z,9.58
2023-03-06T12:37:48.613Z,9.57
2023-03-06T12:40:45.765Z,9.63
2023-03-06T12:43:27.531Z,9.64
2023-03-06T12:46:05.258Z,9.73
2023-03-06T12:48:36.031Z,9.52
2023-03-06T12:51:06.670Z,9.49
2023-03-06T12:53:35.939Z,9.42
2023-03-06T12:56:04.127Z,9.37
2023-03-06T12:58:30.582Z,9.32
2023-03-06T13:01:37.518Z,9.30
2023-03-06T13:04:30.512Z,9.38
2023-03-06T13:07:18.978Z,9.45
2023-03-06T13:10:12.921Z,9.47
2023-03-06T13:12:58.085Z,9.53
2023-03-06T13:15:36.373Z,9.57
2023-03-06T13:18:22.834Z,9.58
2023-03-06T13:20:54.409Z,9.57
2023-03-06T13:23:32.735Z,9.58
2023-03-06T13:26:04.265Z,9.53
2023-03-06T13:28:40.325Z,9.55
2023-03-06T13:31:18.137Z,9.45
2023-03-06T13:33:58.932Z,9.47
2023-03-06T13:36:39.018Z,9.42
2023-03-06T13:39:10.878Z,9.34
2023-03-06T13:41:42.557Z,9.41
2023-03-06T13:44:24.475Z,9.37
2023-03-06T13:47:01.594Z,9.32
2023-03-06T13:49:29.840Z,9.27
2023-03-06T13:52:21.098Z,9.24
2023-03-06T13:55:13.202Z,9.16
2023-03-06T13:57:48.875Z,9.11
2023-03-06T14:00:33.608Z,9.00
2023-03-06T14:03:03.229Z,8.91
2023-03-06T14:05:50.782Z,8.93
2023-03-06T14:08:28.464Z,8.91
2023-03-06T14:11:05.723Z,8.92
2023-03-06T14:13:47.391Z,8.89
2023-03-06T14:16:22.313Z,8.86
2023-03-06T14:18:52.771Z,8.86
2023-03-06T14:21:31.912Z,8.80
2023-03-06T14:24:04.375Z,8.82
2023-03-06T14:26:41.495Z,8.84
2023-03-06T14:29:21.495Z,8.75
2023-03-06T14:31:53.933Z,8.71
2023-03-06T14:34:28.466Z,8.63
2023-03-06T14:36:59.915Z,8.54
2023-03-06T14:39:26.814Z,8.52
2023-03-06T14:42:06.257Z,8.47
2023-03-06T14:44:32.812Z,8.40
2023-03-06T14:47:17.819Z,8.35
2023-03-06T14:49:44.329Z,8.32
2023-03-06T14:52:20.427Z,8.25
2023-03-06T14:54:52.073Z,8.13
2023-03-06T14:57:23.275Z,8.00
2023-03-06T14:59:58.848Z,7.86
2023-03-06T15:02:32.735Z,7.71
2023-03-06T15:05:13.396Z,7.56
2023-03-06T15:07:42.681Z,7.48
2023-03-06T15:10:30.628Z,7.46
2023-03-06T15:13:18.560Z,7.48
2023-03-06T15:16:12.697Z,7.42
2023-03-06T15:18:59.074Z,7.41
2023-03-06T15:21:28.603Z,7.40
2023-03-06T15:23:57.211Z,7.44
2023-03-06T15:26:31.142Z,7.44
2023-03-06T15:29:24.249Z,7.36
2023-03-06T15:31:51.115Z,7.37
2023-03-06T15:34:23.710Z,7.35
2023-03-06T15:36:56.099Z,7.34
2023-03-06T15:39:35.667Z,7.34
2023-03-06T15:42:16.027Z,7.31
2023-03-06T15:44:42.730Z,7.26
2023-03-06T15:47:11.742Z,7.26
2023-03-06T15:49:39.531Z,7.22
2023-03-06T15:52:07.637Z,7.25
2023-03-06T15:54:35.058Z,7.17
2023-03-06T15:57:05.473Z,7.07
2023-03-06T15:59:43.004Z,7.05
2023-03-06T16:02:21.600Z,6.98
2023-03-06T16:04:49.291Z,6.96
2023-03-06T16:07:16.597Z,6.87
2023-03-06T16:09:44.036Z,6.88
2023-03-06T16:12:17.518Z,6.80
2023-03-06T16:14:47.389Z,6.73
2023-03-06T16:17:15.340Z,6.65
2023-03-06T16:19:43.024Z,6.55
2023-03-06T16:22:09.837Z,6.48
2023-03-06T16:24:37.126Z,6.43
2023-03-06T16:27:04.654Z,6.36
2023-03-06T16:29:31.634Z,6.27
2023-03-06T16:31:58.909Z,6.23
2023-03-06T16:34:25.473Z,6.21
2023-03-06T16:36:52.484Z,6.16
2023-03-06T16:39:22.577Z,6.09
2023-03-06T16:41:52.102Z,6.05
2023-03-06T16:44:19.714Z,6.03
2023-03-06T16:46:48.474Z,5.98
2023-03-06T16:49:23.217Z,5.89
2023-03-06T16:51:50.860Z,5.88
2023-03-06T16:54:17.492Z,5.84
2023-03-06T16:56:44.909Z,5.79
2023-03-06T16:59:12.458Z,5.71
2023-03-06T17:01:43.014Z,5.69
2023-03-06T17:04:10.045Z,5.66
2023-03-06T17:06:36.807Z,5.60
2023-03-06T17:09:04.001Z,5.57
2023-03-06T17:11:30.520Z,5.57
2023-03-06T17:13:57.100Z,5.54
2023-03-06T17:16:23.685Z,5.54
2023-03-06T17:18:50.545Z,5.48
2023-03-06T17:21:17.173Z,5.49
2023-03-06T17:23:44.681Z,5.46
2023-03-06T17:26:18.830Z,5.44
2023-03-06T17:28:46.568Z,5.37
2023-03-06T17:31:17.355Z,5.35
2023-03-06T17:33:45.089Z,5.32
2023-03-06T17:36:14.264Z,5.30
2023-03-06T17:38:42.129Z,5.32
2023-03-06T17:41:10.920Z,5.30
2023-03-06T17:43:38.531Z,5.30
2023-03-06T17:46:11.159Z,5.28
2023-03-06T17:48:39.070Z,5.27
2023-03-06T17:51:07.401Z,5.23
2023-03-06T17:53:34.369Z,5.21
2023-03-06T17:56:04.150Z,5.21
2023-03-06T17:58:30.703Z,5.14
2023-03-06T18:00:57.224Z,5.11
2023-03-06T18:03:23.813Z,5.12
2023-03-06T18:06:04.591Z,5.09
2023-03-06T18:08:32.203Z,5.08
2023-03-06T18:11:00.310Z,5.07
2023-03-06T18:13:26.926Z,5.07
2023-03-06T18:15:53.559Z,5.05
2023-03-06T18:18:20.388Z,5.04
2023-03-06T18:20:47.379Z,5.04
2023-03-06T18:23:14.062Z,5.02
2023-03-06T18:25:41.383Z,4.97
2023-03-06T18:28:07.970Z,4.94
2023-03-06T18:30:36.026Z,4.93
2023-03-06T18:33:02.645Z,4.93
2023-03-06T18:35:29.668Z,4.86
2023-03-06T18:37:56.272Z,4.80
2023-03-06T18:40:24.756Z,4.76
2023-03-06T18:42:54.676Z,4.71
2023-03-06T18:45:21.295Z,4.71
2023-03-06T18:47:47.866Z,4.71
2023-03-06T18:50:17.404Z,4.71
2023-03-06T18:52:44.693Z,4.72
2023-03-06T18:55:12.301Z,4.69
2023-03-06T18:57:39.776Z,4.70
2023-03-06T19:00:07.458Z,4.66
2023-03-06T19:02:33.982Z,4.65
2023-03-06T19:05:00.485Z,4.57
2023-03-06T19:07:27.311Z,4.52
2023-03-06T19:09:53.909Z,4.48
2023-03-06T19:12:20.478Z,4.46
2023-03-06T19:14:47.085Z,4.44
2023-03-06T19:17:13.693Z,4.39
2023-03-06T19:19:40.280Z,4.31
2023-03-06T19:22:06.832Z,4.31
2023-03-06T19:24:33.948Z,4.30
2023-03-06T19:27:00.498Z,4.29
2023-03-06T19:29:27.443Z,4.27
2023-03-06T19:31:57.046Z,4.25
2023-03-06T19:34:23.665Z,4.27
2023-03-06T19:36:50.789Z,4.25
2023-03-06T19:39:17.380Z,4.23
2023-03-06T19:41:46.406Z,4.24
2023-03-06T19:44:14.540Z,4.21
2023-03-06T19:46:41.102Z,4.22
2023-03-06T19:49:11.991Z,4.21
2023-03-06T19:51:38.652Z,4.19
2023-03-06T19:54:05.314Z,4.17
2023-03-06T19:56:33.532Z,4.16
2023-03-06T19:59:00.239Z,4.18
2023-03-06T20:01:28.205Z,4.16
2023-03-06T20:03:59.855Z,4.15
2023-03-06T20:06:33.614Z,4.15
2023-03-06T20:09:07.382Z,4.14
2023-03-06T20:11:34.628Z,4.15
2023-03-06T20:14:03.679Z,4.18
2023-03-06T20:16:31.238Z,4.18
2023-03-06T20:19:00.430Z,4.19
2023-03-06T20:21:29.623Z,4.18
2023-03-06T20:23:57.989Z,4.21
2023-03-06T20:26:27.372Z,4.21
2023-03-06T20:28:54.782Z,4.25
2023-03-06T20:31:24.373Z,4.26
2023-03-06T20:33:53.395Z,4.31
2023-03-06T20:36:27.882Z,4.31
2023-03-06T20:38:56.382Z,4.34
2023-03-06T20:41:26.395Z,4.35
2023-03-06T20:43:54.080Z,4.35
2023-03-06T20:46:23.013Z,4.35
2023-03-06T20:48:52.693Z,4.42
2023-03-06T20:51:22.155Z,4.44
2023-03-06T20:53:51.148Z,4.45
2023-03-06T20:56:20.692Z,4.49
2023-03-06T20:58:47.238Z,4.51
2023-03-06T21:01:22.400Z,4.52
2023-03-06T21:03:49.132Z,4.53
2023-03-06T21:06:16.640Z,4.55
2023-03-06T21:08:43.295Z,4.59
2023-03-06T21:11:09.865Z,4.59
2023-03-06T21:13:36.451Z,4.60
2023-03-06T21:16:11.728Z,4.62
2023-03-06T21:18:39.738Z,4.65
2023-03-06T21:21:12.244Z,4.67
2023-03-06T21:23:39.538Z,4.68
2023-03-06T21:26:06.254Z,4.70
2023-03-06T21:28:33.335Z,4.70
2023-03-06T21:31:01.606Z,4.74
2023-03-06T21:33:28.644Z,4.74
2023-03-06T21:35:55.386Z,4.78
2023-03-06T21:38:21.929Z,4.78
2023-03-06T21:40:48.504Z,4.81
2023-03-06T21:43:17.400Z,4.84
2023-03-06T21:45:45.844Z,4.84
2023-03-06T21:48:13.634Z,4.86
2023-03-06T21:50:41.170Z,4.89
2023-03-06T21:53:08.865Z,4.93
2023-03-06T21:55:40.472Z,4.92
2023-03-06T21:58:07.578Z,4.94
2023-03-06T22:00:37.342Z,4.97
2023-03-06T22:03:04.908Z,4.98
2023-03-06T22:05:34.611Z,5.01
2023-03-06T22:08:01.349Z,5.03
2023-03-06T22:10:28.465Z,5.05
2023-03-06T22:12:55.061Z,5.05
2023-03-06T22:15:21.821Z,5.07
2023-03-06T22:17:48.557Z,5.07
2023-03-06T22:20:15.404Z,5.10
2023-03-06T22:22:42.318Z,5.09
2023-03-06T22:25:11.780Z,5.09
2023-03-06T22:27:38.841Z,5.08
2023-03-06T22:30:05.841Z,5.05
2023-03-06T22:32:32.535Z,5.05
2023-03-06T22:34:59.049Z,5.04
2023-03-06T22:37:25.592Z,5.03
2023-03-06T22:39:52.181Z,5.04
2023-03-06T22:42:18.737Z,5.03
2023-03-06T22:44:45.289Z,5.02
2023-03-06T22:47:11.844Z,4.99
2023-03-06T22:49:38.444Z,4.98
2023-03-06T22:52:05.091Z,4.97
2023-03-06T22:54:31.630Z,4.96
2023-03-06T22:56:58.186Z,4.95
2023-03-06T22:59:24.691Z,4.92
2023-03-06T23:01:51.221Z,4.92
2023-03-06T23:04:17.762Z,4.89
2023-03-06T23:06:45.644Z,4.85
2023-03-06T23:09:16.024Z,4.89
2023-03-06T23:11:42.646Z,4.91
2023-03-06T23:14:12.455Z,4.90
2023-03-06T23:16:39.786Z,4.89
2023-03-06T23:19:06.869Z,4.84
2023-03-06T23:21:34.484Z,4.85
2023-03-06T23:24:01.857Z,4.80
2023-03-06T23:26:30.374Z,4.80
2023-03-06T23:28:57.777Z,4.80
2023-03-06T23:31:30.911Z,4.79
2023-03-06T23:33:59.902Z,4.78
2023-03-06T23:36:27.090Z,4.78
2023-03-06T23:38:54.014Z,4.79
2023-03-06T23:41:22.069Z,4.77
2023-03-06T23:43:50.085Z,4.77
2023-03-06T23:46:17.687Z,4.80
2023-03-06T23:48:44.383Z,4.82
2023-03-06T23:51:17.726Z,4.84
2023-03-06T23:53:46.028Z,4.88
2023-03-06T23:56:13.345Z,4.91
2023-03-06T23:58:40.658Z,4.94
